sensor_id;sensor_type;location;lat;lon;timestamp;P1;durP1;ratioP1;P2;durP2;ratioP2
8831;SDS011;4452;50.756;4.472;2023-05-10T00:01:42;32.33;;;11.50;;
8831;SDS011;4452;50.756;4.472;2023-05-10T00:04:07;33.63;;;11.68;;
8831;SDS011;4452;50.756;4.472;2023-05-10T00:06:33;30.85;;;11.68;;
8831;SDS011;4452;50.756;4.472;2023-05-10T00:08:59;28.10;;;10.10;;
8831;SDS011;4452;50.756;4.472;2023-05-10T00:11:24;25.55;;;11.18;;
8831;SDS011;4452;50.756;4.472;2023-05-10T00:13:50;24.77;;;11.25;;
8831;SDS011;4452;50.756;4.472;2023-05-10T00:16:16;38.15;;;13.25;;
8831;SDS011;4452;50.756;4.472;2023-05-10T00:18:41;25.50;;;9.00;;
8831;SDS011;4452;50.756;4.472;2023-05-10T00:21:07;31.20;;;13.50;;
8831;SDS011;4452;50.756;4.472;2023-05-10T00:23:33;27.77;;;12.10;;
8831;SDS011;4452;50.756;4.472;2023-05-10T00:25:58;32.30;;;12.40;;
8831;SDS011;4452;50.756;4.472;2023-05-10T00:28:24;28.10;;;11.43;;
8831;SDS011;4452;50.756;4.472;2023-05-10T00:30:49;39.92;;;13.88;;
8831;SDS011;4452;50.756;4.472;2023-05-10T00:33:15;33.75;;;13.52;;
8831;SDS011;4452;50.756;4.472;2023-05-10T00:35:41;27.70;;;11.27;;
8831;SDS011;4452;50.756;4.472;2023-05-10T00:38:07;33.88;;;12.45;;
8831;SDS011;4452;50.756;4.472;2023-05-10T00:40:32;36.67;;;14.18;;
8831;SDS011;4452;50.756;4.472;2023-05-10T00:43:00;37.30;;;13.40;;
8831;SDS011;4452;50.756;4.472;2023-05-10T00:45:26;32.63;;;12.57;;
8831;SDS011;4452;50.756;4.472;2023-05-10T00:47:52;33.20;;;14.52;;
8831;SDS011;4452;50.756;4.472;2023-05-10T00:50:20;45.20;;;14.68;;
8831;SDS011;4452;50.756;4.472;2023-05-10T00:52:49;35.25;;;12.90;;
8831;SDS011;4452;50.756;4.472;2023-05-10T00:55:15;32.78;;;14.70;;
8831;SDS011;4452;50.756;4.472;2023-05-10T00:57:41;40.38;;;14.60;;
8831;SDS011;4452;50.756;4.472;2023-05-10T01:00:07;32.88;;;14.20;;
8831;SDS011;4452;50.756;4.472;2023-05-10T01:02:34;33.25;;;12.68;;
8831;SDS011;4452;50.756;4.472;2023-05-10T01:05:01;38.42;;;13.57;;
8831;SDS011;4452;50.756;4.472;2023-05-10T01:07:28;34.92;;;14.45;;
8831;SDS011;4452;50.756;4.472;2023-05-10T01:09:54;34.03;;;15.15;;
8831;SDS011;4452;50.756;4.472;2023-05-10T01:12:20;27.80;;;11.70;;
8831;SDS011;4452;50.756;4.472;2023-05-10T01:14:46;39.15;;;14.32;;
8831;SDS011;4452;50.756;4.472;2023-05-10T01:17:13;33.92;;;13.13;;
8831;SDS011;4452;50.756;4.472;2023-05-10T01:19:39;40.10;;;14.30;;
8831;SDS011;4452;50.756;4.472;2023-05-10T01:32:59;29.35;;;13.10;;
8831;SDS011;4452;50.756;4.472;2023-05-10T01:35:49;33.37;;;15.43;;
8831;SDS011;4452;50.756;4.472;2023-05-10T01:43:55;30.13;;;12.27;;
8831;SDS011;4452;50.756;4.472;2023-05-10T01:46:29;31.48;;;12.98;;
8831;SDS011;4452;50.756;4.472;2023-05-10T01:49:02;32.03;;;14.93;;
8831;SDS011;4452;50.756;4.472;2023-05-10T01:51:38;40.85;;;16.35;;
8831;SDS011;4452;50.756;4.472;2023-05-10T01:54:11;35.72;;;15.63;;
8831;SDS011;4452;50.756;4.472;2023-05-10T01:56:39;34.53;;;14.45;;
8831;SDS011;4452;50.756;4.472;2023-05-10T01:59:09;34.15;;;15.10;;
8831;SDS011;4452;50.756;4.472;2023-05-10T02:01:39;40.55;;;15.55;;
8831;SDS011;4452;50.756;4.472;2023-05-10T02:04:06;35.92;;;15.60;;
8831;SDS011;4452;50.756;4.472;2023-05-10T02:06:34;37.20;;;15.30;;
8831;SDS011;4452;50.756;4.472;2023-05-10T02:09:01;39.28;;;15.60;;
8831;SDS011;4452;50.756;4.472;2023-05-10T02:11:28;28.13;;;13.32;;
8831;SDS011;4452;50.756;4.472;2023-05-10T02:13:55;37.97;;;13.85;;
8831;SDS011;4452;50.756;4.472;2023-05-10T02:16:23;32.50;;;12.65;;
8831;SDS011;4452;50.756;4.472;2023-05-10T02:18:51;31.13;;;13.77;;
8831;SDS011;4452;50.756;4.472;2023-05-10T02:21:17;36.03;;;14.18;;
8831;SDS011;4452;50.756;4.472;2023-05-10T02:23:46;33.55;;;14.82;;
8831;SDS011;4452;50.756;4.472;2023-05-10T02:26:14;37.97;;;14.93;;
8831;SDS011;4452;50.756;4.472;2023-05-10T02:28:41;37.33;;;15.23;;
8831;SDS011;4452;50.756;4.472;2023-05-10T02:31:07;35.13;;;14.95;;
8831;SDS011;4452;50.756;4.472;2023-05-10T02:33:35;38.75;;;15.75;;
8831;SDS011;4452;50.756;4.472;2023-05-10T02:36:05;38.63;;;15.88;;
8831;SDS011;4452;50.756;4.472;2023-05-10T02:38:33;41.35;;;15.07;;
8831;SDS011;4452;50.756;4.472;2023-05-10T02:41:01;38.22;;;15.70;;
8831;SDS011;4452;50.756;4.472;2023-05-10T02:43:30;30.20;;;13.25;;
8831;SDS011;4452;50.756;4.472;2023-05-10T02:45:57;39.28;;;14.60;;
8831;SDS011;4452;50.756;4.472;2023-05-10T02:48:22;36.67;;;15.93;;
8831;SDS011;4452;50.756;4.472;2023-05-10T02:50:48;41.63;;;17.75;;
8831;SDS011;4452;50.756;4.472;2023-05-10T02:53:21;41.28;;;16.90;;
8831;SDS011;4452;50.756;4.472;2023-05-10T02:55:49;39.70;;;18.10;;
8831;SDS011;4452;50.756;4.472;2023-05-10T02:58:17;37.88;;;16.92;;
8831;SDS011;4452;50.756;4.472;2023-05-10T03:00:46;46.22;;;18.52;;
8831;SDS011;4452;50.756;4.472;2023-05-10T03:03:12;45.83;;;17.30;;
8831;SDS011;4452;50.756;4.472;2023-05-10T03:05:37;48.85;;;19.63;;
8831;SDS011;4452;50.756;4.472;2023-05-10T03:08:03;22.90;;;12.25;;
8831;SDS011;4452;50.756;4.472;2023-05-10T03:10:30;45.35;;;17.92;;
8831;SDS011;4452;50.756;4.472;2023-05-10T03:18:21;38.08;;;16.20;;
8831;SDS011;4452;50.756;4.472;2023-05-10T03:20:49;39.00;;;16.17;;
8831;SDS011;4452;50.756;4.472;2023-05-10T03:26:13;44.80;;;16.17;;
8831;SDS011;4452;50.756;4.472;2023-05-10T03:28:52;47.50;;;18.23;;
8831;SDS011;4452;50.756;4.472;2023-05-10T03:31:18;43.72;;;17.70;;
8831;SDS011;4452;50.756;4.472;2023-05-10T03:33:47;38.10;;;16.60;;
8831;SDS011;4452;50.756;4.472;2023-05-10T03:36:13;47.83;;;18.58;;
8831;SDS011;4452;50.756;4.472;2023-05-10T03:38:39;45.85;;;17.45;;
8831;SDS011;4452;50.756;4.472;2023-05-10T03:41:05;51.42;;;17.63;;
8831;SDS011;4452;50.756;4.472;2023-05-10T03:43:31;53.95;;;20.00;;
8831;SDS011;4452;50.756;4.472;2023-05-10T03:45:56;53.33;;;18.95;;
8831;SDS011;4452;50.756;4.472;2023-05-10T03:48:22;52.25;;;18.88;;
8831;SDS011;4452;50.756;4.472;2023-05-10T03:50:47;49.33;;;18.13;;
8831;SDS011;4452;50.756;4.472;2023-05-10T03:53:14;53.13;;;17.83;;
8831;SDS011;4452;50.756;4.472;2023-05-10T03:55:40;49.65;;;19.10;;
8831;SDS011;4452;50.756;4.472;2023-05-10T03:58:06;52.70;;;17.42;;
8831;SDS011;4452;50.756;4.472;2023-05-10T04:00:32;51.15;;;17.80;;
8831;SDS011;4452;50.756;4.472;2023-05-10T04:02:58;50.38;;;16.95;;
8831;SDS011;4452;50.756;4.472;2023-05-10T04:05:23;42.17;;;15.18;;
8831;SDS011;4452;50.756;4.472;2023-05-10T04:07:49;50.60;;;18.08;;
8831;SDS011;4452;50.756;4.472;2023-05-10T04:10:16;48.67;;;17.25;;
8831;SDS011;4452;50.756;4.472;2023-05-10T04:12:41;56.95;;;19.67;;
8831;SDS011;4452;50.756;4.472;2023-05-10T04:15:07;52.13;;;17.42;;
8831;SDS011;4452;50.756;4.472;2023-05-10T04:17:34;45.88;;;17.42;;
8831;SDS011;4452;50.756;4.472;2023-05-10T04:20:00;50.53;;;17.27;;
8831;SDS011;4452;50.756;4.472;2023-05-10T04:22:25;50.42;;;17.48;;
8831;SDS011;4452;50.756;4.472;2023-05-10T04:24:52;37.88;;;15.30;;
8831;SDS011;4452;50.756;4.472;2023-05-10T04:27:18;51.85;;;16.92;;
8831;SDS011;4452;50.756;4.472;2023-05-10T04:29:44;38.22;;;14.15;;
8831;SDS011;4452;50.756;4.472;2023-05-10T04:32:09;46.95;;;17.35;;
8831;SDS011;4452;50.756;4.472;2023-05-10T04:34:36;45.05;;;16.38;;
8831;SDS011;4452;50.756;4.472;2023-05-10T04:37:02;48.38;;;17.40;;
8831;SDS011;4452;50.756;4.472;2023-05-10T04:39:27;42.22;;;15.88;;
8831;SDS011;4452;50.756;4.472;2023-05-10T04:41:53;37.30;;;13.10;;
8831;SDS011;4452;50.756;4.472;2023-05-10T04:44:19;31.00;;;11.15;;
8831;SDS011;4452;50.756;4.472;2023-05-10T04:46:44;26.15;;;11.02;;
8831;SDS011;4452;50.756;4.472;2023-05-10T04:49:10;24.77;;;10.07;;
8831;SDS011;4452;50.756;4.472;2023-05-10T04:51:36;18.90;;;8.80;;
8831;SDS011;4452;50.756;4.472;2023-05-10T04:54:02;20.02;;;8.80;;
8831;SDS011;4452;50.756;4.472;2023-05-10T04:56:27;15.45;;;6.28;;
8831;SDS011;4452;50.756;4.472;2023-05-10T04:58:53;11.00;;;5.05;;
8831;SDS011;4452;50.756;4.472;2023-05-10T05:01:19;15.15;;;6.18;;
8831;SDS011;4452;50.756;4.472;2023-05-10T05:03:45;17.70;;;7.22;;
8831;SDS011;4452;50.756;4.472;2023-05-10T05:06:10;22.02;;;7.78;;
8831;SDS011;4452;50.756;4.472;2023-05-10T05:08:36;12.77;;;6.68;;
8831;SDS011;4452;50.756;4.472;2023-05-10T05:11:02;13.35;;;5.63;;
8831;SDS011;4452;50.756;4.472;2023-05-10T05:13:27;11.88;;;5.10;;
8831;SDS011;4452;50.756;4.472;2023-05-10T05:15:54;18.52;;;6.80;;
8831;SDS011;4452;50.756;4.472;2023-05-10T05:18:20;9.10;;;5.57;;
8831;SDS011;4452;50.756;4.472;2023-05-10T05:20:49;10.25;;;4.57;;
8831;SDS011;4452;50.756;4.472;2023-05-10T05:23:15;18.42;;;5.45;;
8831;SDS011;4452;50.756;4.472;2023-05-10T05:25:40;9.00;;;4.68;;
8831;SDS011;4452;50.756;4.472;2023-05-10T05:28:07;10.40;;;4.68;;
8831;SDS011;4452;50.756;4.472;2023-05-10T05:30:32;10.20;;;4.93;;
8831;SDS011;4452;50.756;4.472;2023-05-10T05:32:58;12.98;;;5.43;;
8831;SDS011;4452;50.756;4.472;2023-05-10T05:35:24;7.35;;;3.47;;
8831;SDS011;4452;50.756;4.472;2023-05-10T05:37:49;4.30;;;3.40;;
8831;SDS011;4452;50.756;4.472;2023-05-10T05:40:15;7.88;;;3.72;;
8831;SDS011;4452;50.756;4.472;2023-05-10T05:42:41;6.28;;;3.60;;
8831;SDS011;4452;50.756;4.472;2023-05-10T05:45:07;3.58;;;2.85;;
8831;SDS011;4452;50.756;4.472;2023-05-10T05:47:33;5.10;;;2.92;;
8831;SDS011;4452;50.756;4.472;2023-05-10T05:49:59;10.30;;;3.85;;
8831;SDS011;4452;50.756;4.472;2023-05-10T05:52:25;5.40;;;3.25;;
8831;SDS011;4452;50.756;4.472;2023-05-10T05:54:50;7.05;;;3.58;;
8831;SDS011;4452;50.756;4.472;2023-05-10T05:57:17;5.00;;;2.75;;
8831;SDS011;4452;50.756;4.472;2023-05-10T05:59:42;4.60;;;2.85;;
8831;SDS011;4452;50.756;4.472;2023-05-10T06:02:09;7.03;;;2.72;;
8831;SDS011;4452;50.756;4.472;2023-05-10T06:04:35;7.82;;;3.45;;
8831;SDS011;4452;50.756;4.472;2023-05-10T06:07:00;6.68;;;3.22;;
8831;SDS011;4452;50.756;4.472;2023-05-10T06:09:26;7.47;;;3.45;;
8831;SDS011;4452;50.756;4.472;2023-05-10T06:11:52;7.65;;;2.67;;
8831;SDS011;4452;50.756;4.472;2023-05-10T06:14:19;8.85;;;4.20;;
8831;SDS011;4452;50.756;4.472;2023-05-10T06:16:45;9.82;;;3.20;;
8831;SDS011;4452;50.756;4.472;2023-05-10T06:19:11;5.68;;;3.67;;
8831;SDS011;4452;50.756;4.472;2023-05-10T06:21:37;4.43;;;2.58;;
8831;SDS011;4452;50.756;4.472;2023-05-10T06:24:03;6.60;;;4.30;;
8831;SDS011;4452;50.756;4.472;2023-05-10T06:26:28;7.40;;;3.83;;
8831;SDS011;4452;50.756;4.472;2023-05-10T06:28:54;6.05;;;3.95;;
8831;SDS011;4452;50.756;4.472;2023-05-10T06:31:20;8.82;;;3.83;;
8831;SDS011;4452;50.756;4.472;2023-05-10T06:33:46;5.90;;;3.80;;
8831;SDS011;4452;50.756;4.472;2023-05-10T06:36:11;11.77;;;5.10;;
8831;SDS011;4452;50.756;4.472;2023-05-10T06:38:38;12.32;;;4.53;;
8831;SDS011;4452;50.756;4.472;2023-05-10T06:41:04;5.50;;;3.78;;
8831;SDS011;4452;50.756;4.472;2023-05-10T06:43:29;6.78;;;3.53;;
8831;SDS011;4452;50.756;4.472;2023-05-10T06:45:55;5.47;;;3.55;;
8831;SDS011;4452;50.756;4.472;2023-05-10T06:48:21;4.85;;;3.75;;
8831;SDS011;4452;50.756;4.472;2023-05-10T06:50:46;12.82;;;4.78;;
8831;SDS011;4452;50.756;4.472;2023-05-10T06:53:12;7.45;;;4.28;;
8831;SDS011;4452;50.756;4.472;2023-05-10T06:55:38;6.28;;;3.70;;
8831;SDS011;4452;50.756;4.472;2023-05-10T06:58:04;9.43;;;4.47;;
8831;SDS011;4452;50.756;4.472;2023-05-10T07:00:30;6.70;;;3.47;;
8831;SDS011;4452;50.756;4.472;2023-05-10T07:02:55;6.57;;;3.35;;
8831;SDS011;4452;50.756;4.472;2023-05-10T07:05:21;6.38;;;3.95;;
8831;SDS011;4452;50.756;4.472;2023-05-10T07:07:47;10.10;;;3.55;;
8831;SDS011;4452;50.756;4.472;2023-05-10T07:10:12;5.43;;;3.67;;
8831;SDS011;4452;50.756;4.472;2023-05-10T07:12:39;7.40;;;3.60;;
8831;SDS011;4452;50.756;4.472;2023-05-10T07:15:04;7.75;;;3.58;;
8831;SDS011;4452;50.756;4.472;2023-05-10T07:17:31;5.68;;;3.63;;
8831;SDS011;4452;50.756;4.472;2023-05-10T07:19:58;10.48;;;4.80;;
8831;SDS011;4452;50.756;4.472;2023-05-10T07:22:24;12.88;;;4.47;;
8831;SDS011;4452;50.756;4.472;2023-05-10T07:24:50;7.05;;;4.25;;
8831;SDS011;4452;50.756;4.472;2023-05-10T07:27:16;9.18;;;4.45;;
8831;SDS011;4452;50.756;4.472;2023-05-10T07:29:41;9.52;;;4.20;;
8831;SDS011;4452;50.756;4.472;2023-05-10T07:32:07;11.23;;;5.43;;
8831;SDS011;4452;50.756;4.472;2023-05-10T07:34:33;10.65;;;5.10;;
8831;SDS011;4452;50.756;4.472;2023-05-10T07:36:59;10.35;;;5.07;;
8831;SDS011;4452;50.756;4.472;2023-05-10T07:39:25;9.73;;;4.82;;
8831;SDS011;4452;50.756;4.472;2023-05-10T07:41:51;15.23;;;5.60;;
8831;SDS011;4452;50.756;4.472;2023-05-10T07:44:17;14.85;;;6.43;;
8831;SDS011;4452;50.756;4.472;2023-05-10T07:46:45;12.73;;;6.50;;
8831;SDS011;4452;50.756;4.472;2023-05-10T07:49:12;8.38;;;4.70;;
8831;SDS011;4452;50.756;4.472;2023-05-10T07:51:38;14.30;;;6.13;;
8831;SDS011;4452;50.756;4.472;2023-05-10T07:54:04;14.93;;;5.43;;
8831;SDS011;4452;50.756;4.472;2023-05-10T07:56:30;11.70;;;5.25;;
8831;SDS011;4452;50.756;4.472;2023-05-10T07:58:57;10.30;;;4.55;;
8831;SDS011;4452;50.756;4.472;2023-05-10T08:01:23;11.35;;;5.35;;
8831;SDS011;4452;50.756;4.472;2023-05-10T08:03:49;10.18;;;5.45;;
8831;SDS011;4452;50.756;4.472;2023-05-10T08:06:19;14.70;;;5.97;;
8831;SDS011;4452;50.756;4.472;2023-05-10T08:08:46;11.00;;;4.80;;
8831;SDS011;4452;50.756;4.472;2023-05-10T08:11:14;13.20;;;5.00;;
8831;SDS011;4452;50.756;4.472;2023-05-10T08:13:46;12.73;;;4.90;;
8831;SDS011;4452;50.756;4.472;2023-05-10T08:16:12;5.65;;;3.38;;
8831;SDS011;4452;50.756;4.472;2023-05-10T08:18:38;5.82;;;3.50;;
8831;SDS011;4452;50.756;4.472;2023-05-10T08:21:04;6.15;;;3.22;;
8831;SDS011;4452;50.756;4.472;2023-05-10T08:23:30;5.70;;;3.28;;
8831;SDS011;4452;50.756;4.472;2023-05-10T08:25:56;6.43;;;3.35;;
8831;SDS011;4452;50.756;4.472;2023-05-10T08:28:22;6.45;;;3.47;;
8831;SDS011;4452;50.756;4.472;2023-05-10T08:30:47;3.22;;;2.47;;
8831;SDS011;4452;50.756;4.472;2023-05-10T08:33:14;6.28;;;3.08;;
8831;SDS011;4452;50.756;4.472;2023-05-10T08:35:40;4.35;;;2.97;;
8831;SDS011;4452;50.756;4.472;2023-05-10T08:38:06;3.88;;;2.70;;
8831;SDS011;4452;50.756;4.472;2023-05-10T08:40:32;3.47;;;2.30;;
8831;SDS011;4452;50.756;4.472;2023-05-10T08:43:08;5.18;;;2.70;;
8831;SDS011;4452;50.756;4.472;2023-05-10T08:45:37;4.30;;;2.30;;
8831;SDS011;4452;50.756;4.472;2023-05-10T08:48:07;4.70;;;2.00;;
8831;SDS011;4452;50.756;4.472;2023-05-10T08:50:41;5.28;;;2.40;;
8831;SDS011;4452;50.756;4.472;2023-05-10T08:55:37;2.50;;;1.67;;
8831;SDS011;4452;50.756;4.472;2023-05-10T08:58:04;3.83;;;1.90;;
8831;SDS011;4452;50.756;4.472;2023-05-10T09:00:30;3.83;;;2.65;;
8831;SDS011;4452;50.756;4.472;2023-05-10T09:02:57;3.45;;;2.20;;
8831;SDS011;4452;50.756;4.472;2023-05-10T09:05:23;5.13;;;2.55;;
8831;SDS011;4452;50.756;4.472;2023-05-10T09:07:49;2.63;;;2.38;;
8831;SDS011;4452;50.756;4.472;2023-05-10T09:10:15;3.67;;;2.15;;
8831;SDS011;4452;50.756;4.472;2023-05-10T09:12:41;4.40;;;2.58;;
8831;SDS011;4452;50.756;4.472;2023-05-10T09:15:09;4.28;;;2.90;;
8831;SDS011;4452;50.756;4.472;2023-05-10T09:17:35;7.32;;;3.00;;
8831;SDS011;4452;50.756;4.472;2023-05-10T09:20:03;5.32;;;3.17;;
8831;SDS011;4452;50.756;4.472;2023-05-10T09:22:30;3.92;;;2.92;;
8831;SDS011;4452;50.756;4.472;2023-05-10T09:25:09;5.40;;;3.15;;
8831;SDS011;4452;50.756;4.472;2023-05-10T09:27:36;3.28;;;2.22;;
8831;SDS011;4452;50.756;4.472;2023-05-10T09:30:03;4.20;;;2.83;;
8831;SDS011;4452;50.756;4.472;2023-05-10T09:32:41;3.47;;;2.60;;
8831;SDS011;4452;50.756;4.472;2023-05-10T09:35:15;3.80;;;2.92;;
8831;SDS011;4452;50.756;4.472;2023-05-10T09:37:44;3.83;;;2.53;;
8831;SDS011;4452;50.756;4.472;2023-05-10T09:40:18;2.90;;;2.60;;
8831;SDS011;4452;50.756;4.472;2023-05-10T09:42:53;5.78;;;2.67;;
8831;SDS011;4452;50.756;4.472;2023-05-10T09:45:32;2.88;;;2.53;;
8831;SDS011;4452;50.756;4.472;2023-05-10T09:47:59;2.78;;;2.15;;
8831;SDS011;4452;50.756;4.472;2023-05-10T09:50:27;8.45;;;2.47;;
8831;SDS011;4452;50.756;4.472;2023-05-10T09:52:57;2.78;;;2.22;;
8831;SDS011;4452;50.756;4.472;2023-05-10T09:55:44;2.63;;;2.13;;
8831;SDS011;4452;50.756;4.472;2023-05-10T09:58:11;2.42;;;2.22;;
8831;SDS011;4452;50.756;4.472;2023-05-10T10:00:38;3.60;;;1.70;;
8831;SDS011;4452;50.756;4.472;2023-05-10T10:03:05;4.82;;;2.15;;
8831;SDS011;4452;50.756;4.472;2023-05-10T10:08:05;2.03;;;1.60;;
8831;SDS011;4452;50.756;4.472;2023-05-10T10:10:32;4.30;;;2.50;;
8831;SDS011;4452;50.756;4.472;2023-05-10T10:12:58;2.00;;;1.90;;
8831;SDS011;4452;50.756;4.472;2023-05-10T10:15:24;1.90;;;1.73;;
8831;SDS011;4452;50.756;4.472;2023-05-10T10:17:51;2.17;;;1.98;;
8831;SDS011;4452;50.756;4.472;2023-05-10T10:20:18;1.80;;;1.70;;
8831;SDS011;4452;50.756;4.472;2023-05-10T10:22:45;2.95;;;2.20;;
8831;SDS011;4452;50.756;4.472;2023-05-10T10:25:12;2.63;;;2.03;;
8831;SDS011;4452;50.756;4.472;2023-05-10T10:35:49;2.47;;;2.28;;
8831;SDS011;4452;50.756;4.472;2023-05-10T10:38:17;3.17;;;2.47;;
8831;SDS011;4452;50.756;4.472;2023-05-10T10:40:43;2.67;;;2.55;;
8831;SDS011;4452;50.756;4.472;2023-05-10T10:46:22;2.55;;;2.30;;
8831;SDS011;4452;50.756;4.472;2023-05-10T10:48:48;2.80;;;2.67;;
8831;SDS011;4452;50.756;4.472;2023-05-10T10:51:16;2.65;;;2.45;;
8831;SDS011;4452;50.756;4.472;2023-05-10T10:53:42;3.03;;;2.80;;
8831;SDS011;4452;50.756;4.472;2023-05-10T10:56:09;3.25;;;2.97;;
8831;SDS011;4452;50.756;4.472;2023-05-10T10:58:36;3.35;;;3.08;;
8831;SDS011;4452;50.756;4.472;2023-05-10T11:01:19;12.38;;;2.70;;
8831;SDS011;4452;50.756;4.472;2023-05-10T11:04:45;4.50;;;4.10;;
8831;SDS011;4452;50.756;4.472;2023-05-10T11:06:40;4.22;;;2.90;;
8831;SDS011;4452;50.756;4.472;2023-05-10T11:09:08;3.30;;;3.00;;
8831;SDS011;4452;50.756;4.472;2023-05-10T11:11:35;3.08;;;2.78;;
8831;SDS011;4452;50.756;4.472;2023-05-10T11:14:08;3.13;;;2.85;;
8831;SDS011;4452;50.756;4.472;2023-05-10T11:16:41;2.92;;;2.72;;
8831;SDS011;4452;50.756;4.472;2023-05-10T11:19:12;3.28;;;3.08;;
8831;SDS011;4452;50.756;4.472;2023-05-10T11:21:52;3.08;;;2.80;;
8831;SDS011;4452;50.756;4.472;2023-05-10T11:24:38;3.03;;;2.83;;
8831;SDS011;4452;50.756;4.472;2023-05-10T11:27:05;8.68;;;3.72;;
8831;SDS011;4452;50.756;4.472;2023-05-10T11:29:31;3.45;;;3.17;;
8831;SDS011;4452;50.756;4.472;2023-05-10T11:31:57;3.53;;;3.25;;
8831;SDS011;4452;50.756;4.472;2023-05-10T11:34:24;6.35;;;3.30;;
8831;SDS011;4452;50.756;4.472;2023-05-10T11:36:53;5.05;;;4.05;;
8831;SDS011;4452;50.756;4.472;2023-05-10T11:39:20;3.40;;;3.10;;
8831;SDS011;4452;50.756;4.472;2023-05-10T11:41:49;3.88;;;3.10;;
8831;SDS011;4452;50.756;4.472;2023-05-10T11:44:16;3.80;;;3.50;;
8831;SDS011;4452;50.756;4.472;2023-05-10T11:46:42;4.68;;;3.42;;
8831;SDS011;4452;50.756;4.472;2023-05-10T11:49:08;3.95;;;3.65;;
8831;SDS011;4452;50.756;4.472;2023-05-10T11:51:34;3.30;;;3.00;;
8831;SDS011;4452;50.756;4.472;2023-05-10T11:54:08;2.70;;;2.50;;
8831;SDS011;4452;50.756;4.472;2023-05-10T11:56:36;3.10;;;2.90;;
8831;SDS011;4452;50.756;4.472;2023-05-10T11:59:03;2.75;;;2.53;;
8831;SDS011;4452;50.756;4.472;2023-05-10T12:01:29;3.00;;;2.80;;
8831;SDS011;4452;50.756;4.472;2023-05-10T12:03:56;3.83;;;2.50;;
8831;SDS011;4452;50.756;4.472;2023-05-10T12:06:26;2.67;;;2.47;;
8831;SDS011;4452;50.756;4.472;2023-05-10T12:08:53;2.50;;;2.40;;
8831;SDS011;4452;50.756;4.472;2023-05-10T12:11:19;4.07;;;3.13;;
8831;SDS011;4452;50.756;4.472;2023-05-10T12:13:47;6.53;;;2.50;;
8831;SDS011;4452;50.756;4.472;2023-05-10T12:16:23;3.28;;;2.10;;
8831;SDS011;4452;50.756;4.472;2023-05-10T12:18:52;2.85;;;2.65;;
8831;SDS011;4452;50.756;4.472;2023-05-10T12:21:23;3.25;;;2.75;;
8831;SDS011;4452;50.756;4.472;2023-05-10T12:23:52;2.92;;;2.72;;
8831;SDS011;4452;50.756;4.472;2023-05-10T12:26:21;6.05;;;2.72;;
8831;SDS011;4452;50.756;4.472;2023-05-10T12:28:48;3.10;;;2.85;;
8831;SDS011;4452;50.756;4.472;2023-05-10T12:31:28;3.05;;;2.85;;
8831;SDS011;4452;50.756;4.472;2023-05-10T12:33:55;4.70;;;3.05;;
8831;SDS011;4452;50.756;4.472;2023-05-10T12:36:24;3.08;;;2.63;;
8831;SDS011;4452;50.756;4.472;2023-05-10T12:39:00;3.38;;;2.70;;
8831;SDS011;4452;50.756;4.472;2023-05-10T12:41:30;2.20;;;2.00;;
8831;SDS011;4452;50.756;4.472;2023-05-10T12:43:57;3.08;;;2.55;;
8831;SDS011;4452;50.756;4.472;2023-05-10T12:46:22;2.65;;;2.45;;
8831;SDS011;4452;50.756;4.472;2023-05-10T12:48:50;2.85;;;2.65;;
8831;SDS011;4452;50.756;4.472;2023-05-10T12:51:19;4.70;;;2.40;;
8831;SDS011;4452;50.756;4.472;2023-05-10T12:53:47;3.78;;;2.80;;
8831;SDS011;4452;50.756;4.472;2023-05-10T12:56:13;2.08;;;1.98;;
8831;SDS011;4452;50.756;4.472;2023-05-10T12:58:38;3.22;;;2.70;;
8831;SDS011;4452;50.756;4.472;2023-05-10T13:01:04;3.20;;;3.00;;
8831;SDS011;4452;50.756;4.472;2023-05-10T13:03:30;2.80;;;2.70;;
8831;SDS011;4452;50.756;4.472;2023-05-10T13:05:56;4.32;;;2.88;;
8831;SDS011;4452;50.756;4.472;2023-05-10T13:08:22;3.20;;;2.90;;
8831;SDS011;4452;50.756;4.472;2023-05-10T13:10:48;3.10;;;2.90;;
8831;SDS011;4452;50.756;4.472;2023-05-10T13:13:13;3.45;;;2.85;;
8831;SDS011;4452;50.756;4.472;2023-05-10T13:15:40;2.88;;;2.67;;
8831;SDS011;4452;50.756;4.472;2023-05-10T13:18:05;2.40;;;2.30;;
8831;SDS011;4452;50.756;4.472;2023-05-10T13:20:31;2.53;;;2.30;;
8831;SDS011;4452;50.756;4.472;2023-05-10T13:22:57;3.03;;;2.78;;
8831;SDS011;4452;50.756;4.472;2023-05-10T13:25:22;3.10;;;2.90;;
8831;SDS011;4452;50.756;4.472;2023-05-10T13:27:48;3.78;;;3.10;;
8831;SDS011;4452;50.756;4.472;2023-05-10T13:30:14;3.92;;;3.03;;
8831;SDS011;4452;50.756;4.472;2023-05-10T13:32:40;5.55;;;3.20;;
8831;SDS011;4452;50.756;4.472;2023-05-10T13:35:05;3.95;;;3.30;;
8831;SDS011;4452;50.756;4.472;2023-05-10T13:37:32;7.95;;;3.50;;
8831;SDS011;4452;50.756;4.472;2023-05-10T13:40:00;3.25;;;2.97;;
8831;SDS011;4452;50.756;4.472;2023-05-10T13:42:26;3.80;;;3.50;;
8831;SDS011;4452;50.756;4.472;2023-05-10T13:44:52;4.47;;;3.17;;
8831;SDS011;4452;50.756;4.472;2023-05-10T13:47:18;4.13;;;3.53;;
8831;SDS011;4452;50.756;4.472;2023-05-10T13:49:44;3.28;;;2.97;;
8831;SDS011;4452;50.756;4.472;2023-05-10T13:52:09;4.65;;;3.10;;
8831;SDS011;4452;50.756;4.472;2023-05-10T13:54:35;3.63;;;2.45;;
8831;SDS011;4452;50.756;4.472;2023-05-10T13:57:02;4.55;;;3.42;;
8831;SDS011;4452;50.756;4.472;2023-05-10T13:59:28;3.63;;;3.22;;
8831;SDS011;4452;50.756;4.472;2023-05-10T14:01:56;3.40;;;3.10;;
8831;SDS011;4452;50.756;4.472;2023-05-10T14:04:22;3.92;;;3.42;;
8831;SDS011;4452;50.756;4.472;2023-05-10T14:06:48;3.40;;;3.10;;
8831;SDS011;4452;50.756;4.472;2023-05-10T14:09:14;5.82;;;3.40;;
8831;SDS011;4452;50.756;4.472;2023-05-10T14:11:39;3.75;;;3.42;;
8831;SDS011;4452;50.756;4.472;2023-05-10T14:14:12;3.35;;;3.05;;
8831;SDS011;4452;50.756;4.472;2023-05-10T14:16:43;6.05;;;3.60;;
8831;SDS011;4452;50.756;4.472;2023-05-10T14:19:12;4.45;;;3.90;;
8831;SDS011;4452;50.756;4.472;2023-05-10T14:21:40;7.85;;;3.50;;
8831;SDS011;4452;50.756;4.472;2023-05-10T14:24:09;6.63;;;3.88;;
8831;SDS011;4452;50.756;4.472;2023-05-10T14:26:37;8.68;;;4.60;;
8831;SDS011;4452;50.756;4.472;2023-05-10T14:29:05;7.53;;;4.35;;
8831;SDS011;4452;50.756;4.472;2023-05-10T14:31:31;5.55;;;4.68;;
8831;SDS011;4452;50.756;4.472;2023-05-10T14:33:58;7.22;;;4.65;;
8831;SDS011;4452;50.756;4.472;2023-05-10T14:36:24;8.95;;;4.93;;
8831;SDS011;4452;50.756;4.472;2023-05-10T14:38:49;8.18;;;5.30;;
8831;SDS011;4452;50.756;4.472;2023-05-10T14:41:17;7.60;;;5.30;;
8831;SDS011;4452;50.756;4.472;2023-05-10T14:43:43;6.63;;;5.50;;
8831;SDS011;4452;50.756;4.472;2023-05-10T14:46:09;6.07;;;4.95;;
8831;SDS011;4452;50.756;4.472;2023-05-10T14:48:35;8.45;;;5.55;;
8831;SDS011;4452;50.756;4.472;2023-05-10T14:51:00;7.28;;;5.47;;
8831;SDS011;4452;50.756;4.472;2023-05-10T14:53:26;9.07;;;6.18;;
8831;SDS011;4452;50.756;4.472;2023-05-10T14:55:52;7.53;;;5.32;;
8831;SDS011;4452;50.756;4.472;2023-05-10T14:58:18;7.63;;;6.20;;
8831;SDS011;4452;50.756;4.472;2023-05-10T15:00:44;7.80;;;5.60;;
8831;SDS011;4452;50.756;4.472;2023-05-10T15:03:09;8.77;;;5.82;;
8831;SDS011;4452;50.756;4.472;2023-05-10T15:05:35;12.13;;;7.30;;
8831;SDS011;4452;50.756;4.472;2023-05-10T15:08:02;12.43;;;6.47;;
8831;SDS011;4452;50.756;4.472;2023-05-10T15:10:29;12.73;;;7.40;;
8831;SDS011;4452;50.756;4.472;2023-05-10T15:12:55;10.05;;;7.10;;
8831;SDS011;4452;50.756;4.472;2023-05-10T15:15:20;16.48;;;8.65;;
8831;SDS011;4452;50.756;4.472;2023-05-10T15:17:47;11.40;;;7.95;;
8831;SDS011;4452;50.756;4.472;2023-05-10T15:20:13;14.10;;;8.88;;
8831;SDS011;4452;50.756;4.472;2023-05-10T15:22:39;15.95;;;9.23;;
8831;SDS011;4452;50.756;4.472;2023-05-10T15:25:05;21.10;;;10.40;;
8831;SDS011;4452;50.756;4.472;2023-05-10T15:27:30;16.05;;;9.68;;
8831;SDS011;4452;50.756;4.472;2023-05-10T15:29:56;18.35;;;10.43;;
8831;SDS011;4452;50.756;4.472;2023-05-10T15:32:24;16.55;;;10.05;;
8831;SDS011;4452;50.756;4.472;2023-05-10T15:34:50;16.85;;;10.38;;
8831;SDS011;4452;50.756;4.472;2023-05-10T15:37:16;20.60;;;10.65;;
8831;SDS011;4452;50.756;4.472;2023-05-10T15:39:41;17.40;;;10.40;;
8831;SDS011;4452;50.756;4.472;2023-05-10T15:42:07;15.48;;;9.93;;
8831;SDS011;4452;50.756;4.472;2023-05-10T15:44:33;13.32;;;8.93;;
8831;SDS011;4452;50.756;4.472;2023-05-10T15:47:00;12.75;;;8.13;;